createdAt,value
2018-10-19T00:00:25.380Z,0
2018-10-19T00:01:05.967Z,0
2018-10-19T00:01:46.529Z,0
2018-10-19T00:02:27.596Z,0
2018-10-19T00:03:08.208Z,0
2018-10-19T00:03:49.422Z,0
2018-10-19T00:04:29.326Z,0
2018-10-19T00:05:09.891Z,0
2018-10-19T00:05:50.447Z,0
2018-10-19T00:06:31.021Z,0
2018-10-19T00:07:11.563Z,0
2018-10-19T00:07:52.147Z,0
2018-10-19T00:08:32.727Z,0
2018-10-19T00:09:14.058Z,0
2018-10-19T00:09:53.876Z,0
2018-10-19T00:10:34.430Z,0
2018-10-19T00:11:15.065Z,0
2018-10-19T00:11:55.568Z,0
2018-10-19T00:12:36.135Z,0
2018-10-19T00:13:16.722Z,0
2018-10-19T00:13:57.273Z,0
2018-10-19T00:14:37.825Z,0
2018-10-19T00:15:18.373Z,0
2018-10-19T00:15:58.941Z,0
2018-10-19T00:16:39.494Z,0
2018-10-19T00:17:20.031Z,0
2018-10-19T00:18:00.605Z,0
2018-10-19T00:18:41.185Z,0
2018-10-19T00:19:22.694Z,0
2018-10-19T00:20:03.918Z,0
2018-10-19T00:20:43.883Z,0
2018-10-19T00:21:24.438Z,0
2018-10-19T00:22:05.013Z,0
2018-10-19T00:22:45.609Z,0
2018-10-19T00:23:26.149Z,0
2018-10-19T00:24:07.421Z,0
2018-10-19T00:24:47.310Z,0
2018-10-19T00:25:27.879Z,0
2018-10-19T00:26:08.451Z,0
2018-10-19T00:26:49.012Z,0
2018-10-19T00:27:29.585Z,0
2018-10-19T00:28:10.185Z,0
2018-10-19T00:28:50.743Z,0
2018-10-19T00:29:31.304Z,0
2018-10-19T00:30:11.869Z,0
2018-10-19T00:30:52.924Z,0
2018-10-19T00:31:32.993Z,0
2018-10-19T00:32:13.575Z,0
2018-10-19T00:32:54.223Z,0
2018-10-19T00:33:35.423Z,0
2018-10-19T00:34:15.301Z,0
2018-10-19T00:34:55.937Z,0
2018-10-19T00:35:36.474Z,0
2018-10-19T00:36:17.027Z,0
2018-10-19T00:36:57.602Z,0
2018-10-19T00:37:38.161Z,0
2018-10-19T00:38:19.503Z,0
2018-10-19T00:39:00.105Z,0
2018-10-19T00:39:40.615Z,0
2018-10-19T00:40:21.204Z,0
2018-10-19T00:41:01.811Z,0
2018-10-19T00:41:42.332Z,0
2018-10-19T00:42:22.924Z,0
2018-10-19T00:43:03.502Z,0
2018-10-19T00:43:44.089Z,0
2018-10-19T00:44:24.659Z,0
2018-10-19T00:45:05.248Z,0
2018-10-19T00:45:45.794Z,0
2018-10-19T00:46:26.925Z,0
2018-10-19T00:47:07.528Z,0
2018-10-19T00:47:48.093Z,0
2018-10-19T00:48:28.667Z,0
2018-10-19T00:49:09.220Z,0
2018-10-19T00:49:49.781Z,0
2018-10-19T00:50:31.086Z,0
2018-10-19T00:51:11.736Z,0
2018-10-19T00:51:52.224Z,0
2018-10-19T00:52:32.776Z,0
2018-10-19T00:53:13.468Z,0
2018-10-19T00:53:54.426Z,0
2018-10-19T00:54:34.487Z,0
2018-10-19T00:55:15.930Z,0
2018-10-19T00:55:55.610Z,0
2018-10-19T00:56:36.145Z,0
2018-10-19T00:57:16.821Z,0
2018-10-19T00:57:57.298Z,0
2018-10-19T00:58:37.856Z,0
2018-10-19T00:59:18.929Z,0
2018-10-19T00:59:58.977Z,0
2018-10-19T01:00:39.537Z,0
2018-10-19T01:01:20.124Z,0
2018-10-19T01:02:00.684Z,0
2018-10-19T01:02:41.249Z,0
2018-10-19T01:03:21.831Z,0
2018-10-19T01:04:02.398Z,0
2018-10-19T01:04:42.967Z,0
2018-10-19T01:05:23.511Z,0
2018-10-19T01:06:04.073Z,0
2018-10-19T01:06:44.697Z,0
2018-10-19T01:07:25.247Z,0
2018-10-19T01:08:06.582Z,0
2018-10-19T01:08:47.159Z,0
2018-10-19T01:09:27.834Z,0
2018-10-19T01:10:09.433Z,0
2018-10-19T01:10:49.031Z,0
2018-10-19T01:11:29.574Z,0
2018-10-19T01:12:11.603Z,0
2018-10-19T01:12:52.162Z,0
2018-10-19T01:13:32.784Z,0
2018-10-19T01:14:13.349Z,0
2018-10-19T01:14:53.949Z,0
2018-10-19T01:15:34.513Z,0
2018-10-19T01:16:15.095Z,0
2018-10-19T01:16:55.719Z,0
2018-10-19T01:17:36.276Z,0
2018-10-19T01:18:16.839Z,0
2018-10-19T01:18:57.959Z,0
2018-10-19T01:19:38.528Z,0
2018-10-19T01:20:19.096Z,0
2018-10-19T01:20:59.662Z,0
2018-10-19T01:21:40.932Z,0
2018-10-19T01:22:20.809Z,0
2018-10-19T01:23:01.377Z,0
2018-10-19T01:23:41.956Z,0
2018-10-19T01:24:22.545Z,0
2018-10-19T01:25:03.152Z,0
2018-10-19T01:25:44.308Z,0
2018-10-19T01:26:26.081Z,0
2018-10-19T01:27:06.827Z,0
2018-10-19T01:27:47.332Z,0
2018-10-19T01:28:28.500Z,0
2018-10-19T01:29:09.214Z,0
2018-10-19T01:29:49.648Z,0
2018-10-19T01:30:30.932Z,0
2018-10-19T01:31:10.805Z,0
2018-10-19T01:31:51.941Z,0
2018-10-19T01:32:31.948Z,0
2018-10-19T01:33:12.566Z,0
2018-10-19T01:33:53.068Z,0
2018-10-19T01:34:33.659Z,0
2018-10-19T01:35:14.333Z,0
2018-10-19T01:35:54.760Z,0
2018-10-19T01:36:35.328Z,0
2018-10-19T01:37:16.712Z,0
2018-10-19T01:37:57.274Z,0
2018-10-19T01:38:37.832Z,0
2018-10-19T01:39:18.403Z,0
2018-10-19T01:39:58.954Z,0
2018-10-19T01:40:39.521Z,0
2018-10-19T01:41:20.066Z,0
2018-10-19T01:42:00.660Z,0
2018-10-19T01:42:41.236Z,0
2018-10-19T01:43:21.824Z,0
2018-10-19T01:44:02.379Z,0
2018-10-19T01:44:42.941Z,0
2018-10-19T01:45:23.534Z,0
2018-10-19T01:46:04.100Z,0
2018-10-19T01:46:44.641Z,0
2018-10-19T01:47:25.205Z,0
2018-10-19T01:48:05.810Z,0
2018-10-19T01:48:46.376Z,0
2018-10-19T01:49:26.999Z,0
2018-10-19T01:50:07.593Z,0
2018-10-19T01:50:48.165Z,0
2018-10-19T01:51:29.332Z,0
2018-10-19T01:52:09.887Z,0
2018-10-19T01:52:50.452Z,0
2018-10-19T01:53:31.046Z,0
2018-10-19T01:54:11.653Z,0
2018-10-19T01:54:52.225Z,0
2018-10-19T01:55:32.817Z,0
2018-10-19T01:56:14.609Z,0
2018-10-19T01:56:55.709Z,0
2018-10-19T01:57:36.261Z,0
2018-10-19T01:58:16.836Z,0
2018-10-19T01:58:57.427Z,0
2018-10-19T01:59:38.938Z,0
2018-10-19T02:00:19.562Z,0
2018-10-19T02:01:00.133Z,0
2018-10-19T02:01:40.682Z,0
2018-10-19T02:02:21.926Z,0
2018-10-19T02:03:02.537Z,0
2018-10-19T02:03:43.070Z,0
2018-10-19T02:04:23.621Z,0
2018-10-19T02:05:05.270Z,0
2018-10-19T02:05:46.437Z,0
2018-10-19T02:06:26.940Z,0
2018-10-19T02:07:06.906Z,0
2018-10-19T02:07:47.485Z,0
2018-10-19T02:08:28.074Z,0
2018-10-19T02:09:08.750Z,0
2018-10-19T02:09:49.191Z,0
2018-10-19T02:10:29.748Z,0
2018-10-19T02:11:10.373Z,0
2018-10-19T02:11:50.865Z,0
2018-10-19T02:12:32.096Z,0
2018-10-19T02:13:13.513Z,0
2018-10-19T02:13:54.115Z,0
2018-10-19T02:14:35.453Z,0
2018-10-19T02:15:15.361Z,0
2018-10-19T02:15:55.827Z,0
2018-10-19T02:16:37.336Z,0
2018-10-19T02:17:17.899Z,0
2018-10-19T02:17:58.467Z,0
2018-10-19T02:18:39.033Z,0
2018-10-19T02:19:19.658Z,0
2018-10-19T02:20:00.944Z,0
2018-10-19T02:20:41.551Z,0
2018-10-19T02:21:22.943Z,0
2018-10-19T02:22:02.682Z,0
2018-10-19T02:22:43.251Z,0
2018-10-19T02:23:24.532Z,0
2018-10-19T02:24:05.118Z,0
2018-10-19T02:24:45.671Z,0
2018-10-19T02:25:26.251Z,0
2018-10-19T02:26:06.813Z,0
2018-10-19T02:26:47.372Z,0
2018-10-19T02:27:27.931Z,0
2018-10-19T02:28:08.494Z,0
2018-10-19T02:28:49.954Z,0
2018-10-19T02:29:30.447Z,0
2018-10-19T02:30:10.713Z,0
2018-10-19T02:30:51.280Z,0
2018-10-19T02:31:32.451Z,0
2018-10-19T02:32:12.412Z,0
2018-10-19T02:32:53.026Z,0
2018-10-19T02:33:33.571Z,0
2018-10-19T02:34:15.117Z,0
2018-10-19T02:34:55.746Z,0
2018-10-19T02:35:36.355Z,0
2018-10-19T02:36:16.931Z,0
2018-10-19T02:36:58.446Z,0
2018-10-19T02:37:39.057Z,0
2018-10-19T02:38:19.631Z,0
2018-10-19T02:39:00.285Z,0
2018-10-19T02:39:40.821Z,0
2018-10-19T02:40:21.424Z,0
2018-10-19T02:41:02.986Z,0
2018-10-19T02:41:44.106Z,0
2018-10-19T02:42:24.679Z,0
2018-10-19T02:43:05.273Z,0
2018-10-19T02:43:45.825Z,0
2018-10-19T02:44:27.201Z,0
2018-10-19T02:45:07.865Z,0
2018-10-19T02:45:48.362Z,0
2018-10-19T02:46:28.959Z,0
2018-10-19T02:47:09.595Z,0
2018-10-19T02:47:50.114Z,0
2018-10-19T02:48:30.670Z,0
2018-10-19T02:49:12.188Z,0
2018-10-19T02:49:52.741Z,0
2018-10-19T02:50:33.317Z,0
2018-10-19T02:51:13.961Z,0
2018-10-19T02:51:54.499Z,0
2018-10-19T02:52:35.070Z,0
2018-10-19T02:53:15.718Z,0
2018-10-19T02:53:56.229Z,0
2018-10-19T02:54:37.745Z,0
2018-10-19T02:55:19.200Z,0
2018-10-19T02:55:59.768Z,0
2018-10-19T02:56:40.319Z,0
2018-10-19T02:57:20.899Z,0
2018-10-19T02:58:01.518Z,0
2018-10-19T02:58:42.078Z,0
2018-10-19T02:59:22.655Z,0
2018-10-19T03:00:03.216Z,0
2018-10-19T03:00:46.388Z,0
2018-10-19T03:01:26.945Z,0
2018-10-19T03:02:07.505Z,0
2018-10-19T03:02:48.079Z,0
2018-10-19T03:03:28.655Z,0
2018-10-19T03:04:09.223Z,0
2018-10-19T03:04:49.786Z,0
2018-10-19T03:05:30.359Z,0
2018-10-19T03:06:10.915Z,0
2018-10-19T03:06:51.466Z,0
2018-10-19T03:07:32.047Z,0
2018-10-19T03:08:12.601Z,0
2018-10-19T03:08:53.244Z,0
2018-10-19T03:09:33.750Z,0
2018-10-19T03:10:14.307Z,0
2018-10-19T03:10:54.874Z,0
2018-10-19T03:11:35.535Z,0
2018-10-19T03:12:17.450Z,0
2018-10-19T03:12:57.147Z,0
2018-10-19T03:13:37.685Z,0
2018-10-19T03:14:18.249Z,0
2018-10-19T03:14:58.862Z,0
2018-10-19T03:15:39.954Z,0
2018-10-19T03:16:19.947Z,0
2018-10-19T03:17:00.535Z,0
2018-10-19T03:17:41.094Z,0
2018-10-19T03:18:22.453Z,0
2018-10-19T03:19:02.214Z,0
2018-10-19T03:19:42.798Z,0
2018-10-19T03:20:23.344Z,0
2018-10-19T03:21:04.002Z,0
2018-10-19T03:21:44.493Z,0
2018-10-19T03:22:25.958Z,0
2018-10-19T03:23:05.661Z,0
2018-10-19T03:23:46.190Z,0
2018-10-19T03:24:26.909Z,0
2018-10-19T03:25:07.480Z,0
2018-10-19T03:25:48.047Z,0
2018-10-19T03:26:28.610Z,0
2018-10-19T03:27:09.225Z,0
2018-10-19T03:27:49.768Z,0
2018-10-19T03:28:30.342Z,0
2018-10-19T03:29:10.971Z,0
2018-10-19T03:29:51.461Z,0
2018-10-19T03:30:32.024Z,0
2018-10-19T03:31:12.756Z,0
2018-10-19T03:31:53.177Z,0
2018-10-19T03:32:33.784Z,0
2018-10-19T03:33:14.486Z,0
2018-10-19T03:33:54.930Z,0
2018-10-19T03:34:35.478Z,0
2018-10-19T03:35:16.134Z,0
2018-10-19T03:35:56.617Z,0
2018-10-19T03:36:37.201Z,0
2018-10-19T03:37:17.770Z,0
2018-10-19T03:37:58.339Z,0
2018-10-19T03:38:40.735Z,0
2018-10-19T03:39:21.297Z,0
2018-10-19T03:40:01.892Z,0
2018-10-19T03:40:42.452Z,0
2018-10-19T03:41:23.010Z,0
2018-10-19T03:42:03.571Z,0
2018-10-19T03:42:44.131Z,0
2018-10-19T03:43:24.832Z,0
2018-10-19T03:44:05.392Z,0
2018-10-19T03:44:45.954Z,0
2018-10-19T03:45:26.516Z,0
2018-10-19T03:46:07.111Z,0
2018-10-19T03:46:47.674Z,0
2018-10-19T03:47:28.259Z,0
2018-10-19T03:48:08.813Z,0
2018-10-19T03:48:49.434Z,0
2018-10-19T03:49:30.025Z,0
2018-10-19T03:50:10.590Z,0
2018-10-19T03:50:51.156Z,0
2018-10-19T03:51:31.711Z,0
2018-10-19T03:52:12.293Z,0
2018-10-19T03:52:52.882Z,0
2018-10-19T03:53:33.425Z,0
2018-10-19T03:54:13.992Z,0
2018-10-19T03:54:54.552Z,0
2018-10-19T03:55:35.121Z,0
2018-10-19T03:56:15.786Z,0
2018-10-19T03:56:56.407Z,0
2018-10-19T03:57:36.922Z,0
2018-10-19T03:58:17.474Z,0
2018-10-19T03:58:58.070Z,0
2018-10-19T03:59:38.585Z,0
2018-10-19T04:00:19.162Z,0
2018-10-19T04:00:59.722Z,0
2018-10-19T04:01:40.273Z,0
2018-10-19T04:02:20.858Z,0
2018-10-19T04:03:01.420Z,0
2018-10-19T04:03:42.106Z,0
2018-10-19T04:04:22.540Z,0
2018-10-19T04:05:03.102Z,0
2018-10-19T04:05:43.666Z,0
2018-10-19T04:06:24.220Z,0
2018-10-19T04:07:04.816Z,0
2018-10-19T04:07:45.368Z,0
2018-10-19T04:08:25.958Z,0
2018-10-19T04:09:06.543Z,0
2018-10-19T04:09:47.082Z,0
2018-10-19T04:10:27.662Z,0
2018-10-19T04:11:08.262Z,0
2018-10-19T04:11:48.777Z,0
2018-10-19T04:12:29.324Z,0
2018-10-19T04:13:09.881Z,0
2018-10-19T04:13:50.433Z,0
2018-10-19T04:14:30.990Z,0
2018-10-19T04:15:11.743Z,0
2018-10-19T04:15:52.147Z,0
2018-10-19T04:16:32.724Z,0
2018-10-19T04:17:13.342Z,0
2018-10-19T04:17:54.469Z,0
2018-10-19T04:18:37.886Z,0
2018-10-19T04:19:18.433Z,0
2018-10-19T04:19:59.965Z,0
2018-10-19T04:20:39.586Z,0
2018-10-19T04:21:20.266Z,0
2018-10-19T04:22:00.707Z,0
2018-10-19T04:22:41.271Z,0
2018-10-19T04:23:21.819Z,0
2018-10-19T04:24:02.914Z,0
2018-10-19T04:24:43.477Z,0
2018-10-19T04:25:24.037Z,0
2018-10-19T04:26:04.592Z,0
2018-10-19T04:26:45.188Z,0
2018-10-19T04:27:25.802Z,0
2018-10-19T04:28:06.318Z,0
2018-10-19T04:28:46.878Z,0
2018-10-19T04:29:27.468Z,0
2018-10-19T04:30:08.004Z,0
2018-10-19T04:30:48.575Z,0
2018-10-19T04:31:29.125Z,0
2018-10-19T04:32:10.473Z,0
2018-10-19T04:32:52.004Z,0
2018-10-19T04:33:31.675Z,0
2018-10-19T04:34:12.228Z,0
2018-10-19T04:34:53.474Z,0
2018-10-19T04:35:33.363Z,0
2018-10-19T04:36:13.914Z,0
2018-10-19T04:36:55.115Z,0
2018-10-19T04:37:35.686Z,0
2018-10-19T04:38:16.248Z,0
2018-10-19T04:38:56.847Z,0
2018-10-19T04:39:37.376Z,0
2018-10-19T04:40:18.473Z,0
2018-10-19T04:40:59.473Z,0
2018-10-19T04:41:40.615Z,0
2018-10-19T04:42:21.258Z,0
2018-10-19T04:43:02.109Z,0
2018-10-19T04:43:43.475Z,0
2018-10-19T04:44:24.101Z,0
2018-10-19T04:45:04.728Z,0
2018-10-19T04:45:45.220Z,0
2018-10-19T04:46:26.466Z,0
2018-10-19T04:47:06.362Z,0
2018-10-19T04:47:47.309Z,0
2018-10-19T04:48:27.781Z,0
2018-10-19T04:49:09.178Z,0
2018-10-19T04:49:49.735Z,0
2018-10-19T04:50:30.301Z,0
2018-10-19T04:51:10.928Z,0
2018-10-19T04:51:51.466Z,0
2018-10-19T04:52:33.618Z,0
2018-10-19T04:53:14.460Z,0
2018-10-19T04:53:55.364Z,0
2018-10-19T04:54:36.413Z,0
2018-10-19T04:55:17.475Z,0
2018-10-19T04:55:58.646Z,0
2018-10-19T04:56:39.252Z,0
2018-10-19T04:57:19.909Z,0
2018-10-19T04:58:00.969Z,0
2018-10-19T04:58:40.953Z,0
2018-10-19T04:59:21.579Z,0
2018-10-19T05:00:02.138Z,0
2018-10-19T05:00:42.701Z,0
2018-10-19T05:01:23.261Z,0
2018-10-19T05:02:04.313Z,0
2018-10-19T05:02:45.993Z,0
2018-10-19T05:03:26.821Z,0
2018-10-19T05:04:07.860Z,0
2018-10-19T05:04:49.878Z,0
2018-10-19T05:05:31.387Z,0
2018-10-19T05:06:12.342Z,0
2018-10-19T05:06:53.317Z,0
2018-10-19T05:07:34.269Z,0
2018-10-19T05:08:15.277Z,0
2018-10-19T05:08:56.091Z,0
2018-10-19T05:09:37.184Z,0
2018-10-19T05:10:18.184Z,0
2018-10-19T05:10:58.812Z,0
2018-10-19T05:11:40.273Z,0
2018-10-19T05:12:20.870Z,0
2018-10-19T05:13:02.364Z,0
2018-10-19T05:13:42.992Z,0
2018-10-19T05:14:23.629Z,0
2018-10-19T05:15:04.976Z,0
2018-10-19T05:15:44.796Z,0
2018-10-19T05:16:25.392Z,0
2018-10-19T05:17:06.040Z,0
2018-10-19T05:17:46.558Z,0
2018-10-19T05:18:27.115Z,0
2018-10-19T05:19:07.776Z,0
2018-10-19T05:19:48.340Z,0
2018-10-19T05:20:28.922Z,0
2018-10-19T05:21:09.622Z,0
2018-10-19T05:21:50.217Z,0
2018-10-19T05:22:30.825Z,0
2018-10-19T05:23:12.051Z,0
2018-10-19T05:23:52.001Z,0
2018-10-19T05:24:32.706Z,0
2018-10-19T05:25:13.253Z,0
2018-10-19T05:25:54.482Z,0
2018-10-19T05:26:34.977Z,0
2018-10-19T05:27:15.632Z,0
2018-10-19T05:27:56.221Z,0
2018-10-19T05:28:36.834Z,0
2018-10-19T05:29:17.502Z,0
2018-10-19T05:29:57.937Z,0
2018-10-19T05:30:38.519Z,0
2018-10-19T05:31:19.074Z,0
2018-10-19T05:32:02.078Z,0
2018-10-19T05:32:41.906Z,0
2018-10-19T05:33:22.424Z,0
2018-10-19T05:34:02.971Z,0
2018-10-19T05:34:44.136Z,0
2018-10-19T05:35:25.268Z,0
2018-10-19T05:36:06.127Z,0
2018-10-19T05:36:46.948Z,0
2018-10-19T05:37:27.504Z,0
2018-10-19T05:38:08.120Z,0
2018-10-19T05:38:48.667Z,0
2018-10-19T05:39:29.233Z,0
2018-10-19T05:40:09.869Z,0
2018-10-19T05:40:51.329Z,0
2018-10-19T05:41:31.923Z,0
2018-10-19T05:42:12.476Z,0
2018-10-19T05:42:53.034Z,0
2018-10-19T05:43:33.671Z,0
2018-10-19T05:44:14.243Z,0
2018-10-19T05:44:54.728Z,5
2018-10-19T05:45:35.317Z,5
2018-10-19T05:46:15.881Z,5
2018-10-19T05:46:56.562Z,5
2018-10-19T05:47:37.098Z,5
2018-10-19T05:48:18.227Z,5
2018-10-19T05:50:46.274Z,5
2018-10-19T05:51:26.845Z,5
2018-10-19T05:52:08.064Z,5
2018-10-19T05:52:48.057Z,5
2018-10-19T05:53:28.606Z,5
2018-10-19T05:54:09.378Z,5
2018-10-19T05:54:49.930Z,10
2018-10-19T05:55:30.512Z,10
2018-10-19T05:56:11.170Z,10
2018-10-19T05:56:51.701Z,10
2018-10-19T05:57:32.261Z,10
2018-10-19T05:58:12.837Z,10
2018-10-19T05:58:53.462Z,10
2018-10-19T05:59:34.142Z,10
2018-10-19T06:00:14.701Z,10
2018-10-19T06:00:55.924Z,15
2018-10-19T06:01:36.480Z,15
2018-10-19T06:02:17.149Z,15
2018-10-19T06:02:57.634Z,15
2018-10-19T06:03:38.186Z,15
2018-10-19T06:04:18.766Z,15
2018-10-19T06:04:59.336Z,15
2018-10-19T06:05:39.881Z,20
2018-10-19T06:06:20.430Z,20
2018-10-19T06:07:01.527Z,20
2018-10-19T06:07:41.573Z,20
2018-10-19T06:08:22.126Z,20
2018-10-19T06:09:02.675Z,25
2018-10-19T06:09:44.106Z,25
2018-10-19T06:10:24.728Z,25
2018-10-19T06:11:06.068Z,25
2018-10-19T06:11:46.532Z,25
2018-10-19T06:12:26.413Z,25
2018-10-19T06:13:07.530Z,25
2018-10-19T06:13:47.693Z,25
2018-10-19T06:14:28.114Z,25
2018-10-19T06:15:08.668Z,25
2018-10-19T06:15:49.330Z,30
2018-10-19T06:16:29.906Z,30
2018-10-19T06:17:10.528Z,25
2018-10-19T06:17:51.188Z,30
2018-10-19T06:18:32.533Z,30
2018-10-19T06:19:12.288Z,30
2018-10-19T06:19:52.889Z,30
2018-10-19T06:20:33.465Z,30
2018-10-19T06:21:14.228Z,35
2018-10-19T06:21:54.751Z,35
2018-10-19T06:22:35.358Z,35
2018-10-19T06:23:16.097Z,35
2018-10-19T06:23:56.573Z,35
2018-10-19T06:24:37.155Z,35
2018-10-19T06:25:17.737Z,35
2018-10-19T06:25:58.419Z,35
2018-10-19T06:26:38.901Z,40
2018-10-19T06:27:19.470Z,40
2018-10-19T06:28:00.041Z,40
2018-10-19T06:28:40.611Z,45
2018-10-19T06:29:21.180Z,45
2018-10-19T06:30:01.735Z,45
2018-10-19T06:30:42.339Z,45
2018-10-19T06:31:22.876Z,45
2018-10-19T06:32:03.524Z,40
2018-10-19T06:32:44.466Z,40
2018-10-19T06:33:26.066Z,40
2018-10-19T06:34:08.600Z,40
2018-10-19T06:34:50.235Z,40
2018-10-19T06:35:31.850Z,40
2018-10-19T06:36:14.384Z,40
2018-10-19T06:36:56.027Z,40
2018-10-19T06:37:37.418Z,40
2018-10-19T06:38:18.764Z,40
2018-10-19T06:39:00.057Z,40
2018-10-19T06:39:41.235Z,40
2018-10-19T06:40:21.834Z,40
2018-10-19T06:41:02.433Z,40
2018-10-19T06:41:42.968Z,40
2018-10-19T06:42:23.644Z,40
2018-10-19T06:43:04.237Z,35
2018-10-19T06:43:44.787Z,35
2018-10-19T06:44:25.419Z,30
2018-10-19T06:45:05.993Z,30
2018-10-19T06:45:46.646Z,35
2018-10-19T06:46:27.237Z,35
2018-10-19T06:47:07.811Z,35
2018-10-19T06:47:48.346Z,40
2018-10-19T06:48:28.890Z,40
2018-10-19T06:49:09.547Z,40
2018-10-19T06:49:50.062Z,45
2018-10-19T06:50:30.657Z,45
2018-10-19T06:51:11.206Z,45
2018-10-19T06:51:51.769Z,45
2018-10-19T06:52:32.322Z,45
2018-10-19T06:53:12.918Z,45
2018-10-19T06:53:53.421Z,45
2018-10-19T06:54:33.999Z,45
2018-10-19T06:55:14.663Z,45
2018-10-19T06:55:55.251Z,50
2018-10-19T06:56:35.775Z,50
2018-10-19T06:57:16.344Z,50
2018-10-19T06:57:57.387Z,50
2018-10-19T06:58:37.959Z,55
2018-10-19T06:59:18.556Z,55
2018-10-19T06:59:59.100Z,55
2018-10-19T07:00:39.659Z,55
2018-10-19T07:01:20.248Z,55
2018-10-19T07:02:01.329Z,55
2018-10-19T07:02:41.861Z,55
2018-10-19T07:03:22.612Z,55
2018-10-19T07:04:03.703Z,55
2018-10-19T07:04:45.041Z,55
2018-10-19T07:05:25.727Z,55
2018-10-19T07:06:07.593Z,55
2018-10-19T07:06:48.545Z,55
2018-10-19T07:07:28.434Z,55
2018-10-19T07:08:09.206Z,55
2018-10-19T07:08:49.602Z,55
2018-10-19T07:09:30.188Z,55
2018-10-19T07:10:10.764Z,55
2018-10-19T07:10:51.331Z,55
2018-10-19T07:11:31.978Z,55
2018-10-19T07:12:12.676Z,60
2018-10-19T07:12:53.113Z,60
2018-10-19T07:13:33.780Z,60
2018-10-19T07:14:14.358Z,60
2018-10-19T07:14:55.067Z,60
2018-10-19T07:15:35.642Z,60
2018-10-19T07:16:16.232Z,60
2018-10-19T07:16:56.992Z,60
2018-10-19T07:17:37.488Z,60
2018-10-19T07:18:18.071Z,65
2018-10-19T07:18:58.725Z,65
2018-10-19T07:19:39.240Z,65
2018-10-19T07:20:20.611Z,65
2018-10-19T07:21:02.213Z,65
2018-10-19T07:21:42.905Z,65
2018-10-19T07:22:23.434Z,65
2018-10-19T07:23:04.157Z,70
2018-10-19T07:23:44.978Z,70
2018-10-19T07:24:25.736Z,70
2018-10-19T07:25:06.283Z,70
2018-10-19T07:25:46.893Z,70
2018-10-19T07:26:27.709Z,70
2018-10-19T07:27:08.261Z,70
2018-10-19T07:27:48.883Z,70
2018-10-19T07:28:29.482Z,75
2018-10-19T07:29:10.295Z,75
2018-10-19T07:29:50.802Z,75
2018-10-19T07:30:31.538Z,80
2018-10-19T07:31:12.364Z,80
2018-10-19T07:31:53.024Z,80
2018-10-19T07:32:33.573Z,80
2018-10-19T07:33:14.128Z,85
2018-10-19T07:33:54.783Z,85
2018-10-19T07:34:35.409Z,85
2018-10-19T07:35:16.119Z,90
2018-10-19T07:35:56.574Z,90
2018-10-19T07:36:37.208Z,95
2018-10-19T07:37:17.823Z,100
2018-10-19T07:37:58.556Z,100
2018-10-19T07:38:39.176Z,105
2018-10-19T07:39:19.810Z,110
2018-10-19T07:40:00.363Z,110
2018-10-19T07:40:40.974Z,110
2018-10-19T07:41:21.942Z,110
2018-10-19T07:42:02.409Z,115
2018-10-19T07:42:43.051Z,120
2018-10-19T07:43:23.815Z,120
2018-10-19T07:44:04.484Z,125
2018-10-19T07:44:45.039Z,130
2018-10-19T07:45:25.786Z,135
2018-10-19T07:46:06.446Z,140
2018-10-19T07:46:47.015Z,150
2018-10-19T07:47:27.823Z,165
2018-10-19T07:48:08.495Z,190
2018-10-19T07:48:49.236Z,365
2018-10-19T07:49:29.883Z,450
2018-10-19T07:50:10.755Z,470
2018-10-19T07:50:51.383Z,675
2018-10-19T07:51:32.078Z,820
2018-10-19T07:52:12.779Z,290
2018-10-19T07:52:53.430Z,265
2018-10-19T07:53:34.028Z,265
2018-10-19T07:54:14.736Z,255
2018-10-19T07:54:55.321Z,260
2018-10-19T07:55:35.875Z,270
2018-10-19T07:56:16.523Z,305
2018-10-19T07:56:57.013Z,630
2018-10-19T07:57:37.714Z,785
2018-10-19T07:58:18.282Z,880
2018-10-19T07:58:58.876Z,915
2018-10-19T07:59:39.435Z,750
2018-10-19T08:00:20.187Z,780
2018-10-19T08:01:00.654Z,820
2018-10-19T08:01:41.217Z,1360
2018-10-19T08:02:21.797Z,985
2018-10-19T08:03:02.349Z,585
2018-10-19T08:03:42.938Z,1130
2018-10-19T08:04:23.566Z,1035
2018-10-19T08:05:04.162Z,735
2018-10-19T08:05:44.709Z,575
2018-10-19T08:06:25.293Z,465
2018-10-19T08:07:05.842Z,1055
2018-10-19T08:07:46.437Z,730
2018-10-19T08:08:27.012Z,690
2018-10-19T08:09:07.573Z,705
2018-10-19T08:09:48.180Z,770
2018-10-19T08:10:28.773Z,750
2018-10-19T08:11:09.389Z,850
2018-10-19T08:11:49.915Z,1795
2018-10-19T08:12:30.519Z,1745
2018-10-19T08:13:11.104Z,1735
2018-10-19T08:13:51.704Z,1705
2018-10-19T08:14:32.286Z,1620
2018-10-19T08:15:12.870Z,905
2018-10-19T08:15:53.412Z,1255
2018-10-19T08:16:33.997Z,1440
2018-10-19T08:17:14.680Z,1755
2018-10-19T08:17:55.147Z,1710
2018-10-19T08:18:35.713Z,1660
2018-10-19T08:19:16.297Z,1180
2018-10-19T08:19:56.924Z,780
2018-10-19T08:20:37.436Z,1075
2018-10-19T08:21:18.061Z,970
2018-10-19T08:21:58.572Z,765
2018-10-19T08:22:39.153Z,835
2018-10-19T08:23:19.753Z,790
2018-10-19T08:24:00.348Z,795
2018-10-19T08:24:40.923Z,1130
2018-10-19T08:25:21.489Z,700
2018-10-19T08:26:02.100Z,1090
2018-10-19T08:26:42.713Z,1085
2018-10-19T08:27:23.591Z,1700
2018-10-19T08:28:04.075Z,1455
2018-10-19T08:28:44.706Z,1215
2018-10-19T08:29:25.309Z,1300
2018-10-19T08:30:05.872Z,1445
2018-10-19T08:30:46.434Z,1045
2018-10-19T08:31:27.000Z,1020
2018-10-19T08:32:07.693Z,1100
2018-10-19T08:32:48.178Z,905
2018-10-19T08:33:28.759Z,850
2018-10-19T08:34:09.411Z,1215
2018-10-19T08:34:49.956Z,955
2018-10-19T08:35:30.704Z,710
2018-10-19T08:36:11.298Z,940
2018-10-19T08:36:51.882Z,925
2018-10-19T08:37:32.488Z,685
2018-10-19T08:38:13.056Z,355
2018-10-19T08:38:53.621Z,345
2018-10-19T08:39:34.197Z,375
2018-10-19T08:40:14.806Z,320
2018-10-19T08:40:55.417Z,460
2018-10-19T08:41:35.971Z,440
2018-10-19T08:42:16.540Z,425
2018-10-19T08:42:57.241Z,415
2018-10-19T08:43:37.770Z,395
2018-10-19T08:44:18.347Z,315
2018-10-19T08:44:58.960Z,240
2018-10-19T08:45:39.491Z,375
2018-10-19T08:46:20.043Z,355
2018-10-19T08:47:00.722Z,350
2018-10-19T08:47:41.329Z,345
2018-10-19T08:48:21.890Z,345
2018-10-19T08:49:02.636Z,320
2018-10-19T08:49:43.073Z,315
2018-10-19T08:50:23.642Z,245
2018-10-19T08:51:04.290Z,235
2018-10-19T08:51:44.785Z,205
2018-10-19T08:52:25.418Z,185
2018-10-19T08:53:06.083Z,185
2018-10-19T08:53:46.621Z,175
2018-10-19T08:54:27.226Z,215
2018-10-19T08:55:07.879Z,205
2018-10-19T08:55:48.363Z,195
2018-10-19T08:56:28.935Z,150
2018-10-19T08:57:09.577Z,150
2018-10-19T08:57:50.177Z,175
2018-10-19T08:58:31.585Z,190
2018-10-19T08:59:12.265Z,190
2018-10-19T08:59:52.833Z,160
2018-10-19T09:00:33.382Z,190
2018-10-19T09:01:13.940Z,190
2018-10-19T09:01:55.162Z,190
2018-10-19T09:02:35.734Z,165
2018-10-19T09:03:16.334Z,155
2018-10-19T09:03:56.904Z,155
2018-10-19T09:04:37.428Z,145
2018-10-19T09:05:18.020Z,185
2018-10-19T09:05:58.658Z,165
2018-10-19T09:06:39.198Z,175
2018-10-19T09:07:19.771Z,175
2018-10-19T09:08:00.345Z,175
2018-10-19T09:08:40.917Z,170
2018-10-19T09:09:21.552Z,165
2018-10-19T09:10:02.134Z,160
2018-10-19T09:10:42.759Z,160
2018-10-19T09:11:23.454Z,165
2018-10-19T09:12:03.955Z,170
2018-10-19T09:12:44.663Z,175
2018-10-19T09:13:25.149Z,170
2018-10-19T09:14:05.770Z,165
2018-10-19T09:14:46.339Z,165
2018-10-19T09:15:26.902Z,170
2018-10-19T09:16:08.115Z,170
2018-10-19T09:16:48.045Z,170
2018-10-19T09:17:28.607Z,170
2018-10-19T09:18:09.217Z,170
2018-10-19T09:18:49.809Z,165
2018-10-19T09:19:30.350Z,160
2018-10-19T09:20:11.035Z,155
2018-10-19T09:20:51.630Z,150
2018-10-19T09:21:32.207Z,145
2018-10-19T09:22:12.805Z,145
2018-10-19T09:22:54.107Z,145
2018-10-19T09:23:33.921Z,145
2018-10-19T09:24:14.489Z,145
2018-10-19T09:24:55.118Z,120
2018-10-19T09:25:35.687Z,125
2018-10-19T09:26:16.273Z,140
2018-10-19T09:26:56.889Z,140
2018-10-19T09:27:37.387Z,125
2018-10-19T09:28:17.968Z,125
2018-10-19T09:28:58.575Z,125
2018-10-19T09:29:39.187Z,125
2018-10-19T09:30:19.698Z,125
2018-10-19T09:31:00.305Z,120
2018-10-19T09:31:40.924Z,130
2018-10-19T09:32:21.509Z,135
2018-10-19T09:33:02.099Z,130
2018-10-19T09:33:42.661Z,130
2018-10-19T09:34:23.251Z,130
2018-10-19T09:35:03.962Z,130
2018-10-19T09:35:44.546Z,130
2018-10-19T09:36:25.220Z,130
2018-10-19T09:37:05.651Z,130
2018-10-19T09:37:46.180Z,125
2018-10-19T09:38:26.726Z,130
2018-10-19T09:39:07.363Z,125
2018-10-19T09:39:47.876Z,125
2018-10-19T09:40:28.427Z,125
2018-10-19T09:41:09.131Z,125
2018-10-19T09:41:49.665Z,125
2018-10-19T09:42:30.239Z,130
2018-10-19T09:43:10.832Z,130
2018-10-19T09:43:51.377Z,120
2018-10-19T09:44:31.924Z,125
2018-10-19T09:45:12.554Z,120
2018-10-19T09:45:53.066Z,120
2018-10-19T09:46:33.626Z,120
2018-10-19T09:47:14.327Z,120
2018-10-19T09:47:54.889Z,120
2018-10-19T09:48:35.555Z,120
2018-10-19T09:49:16.136Z,120